sensor_id;sensor_type;location;lat;lon;timestamp;temperature;humidity
52159;DHT22;38145;53.182;6.284;2022-10-31T00:00:39;13.10;99.90
52159;DHT22;38145;53.182;6.284;2022-10-31T00:03:05;12.90;99.90
52159;DHT22;38145;53.182;6.284;2022-10-31T00:05:32;13.00;99.90
52159;DHT22;38145;53.182;6.284;2022-10-31T00:07:58;12.80;99.90
52159;DHT22;38145;53.182;6.284;2022-10-31T00:10:24;12.80;99.90
52159;DHT22;38145;53.182;6.284;2022-10-31T00:12:50;12.70;99.90
52159;DHT22;38145;53.182;6.284;2022-10-31T00:15:16;12.70;99.90
52159;DHT22;38145;53.182;6.284;2022-10-31T00:17:42;12.90;99.90
52159;DHT22;38145;53.182;6.284;2022-10-31T00:20:08;12.90;99.90
52159;DHT22;38145;53.182;6.284;2022-10-31T00:22:34;12.90;99.90
52159;DHT22;38145;53.182;6.284;2022-10-31T00:25:01;12.80;99.90
52159;DHT22;38145;53.182;6.284;2022-10-31T00:27:27;12.70;99.90
52159;DHT22;38145;53.182;6.284;2022-10-31T00:29:53;12.70;99.90
52159;DHT22;38145;53.182;6.284;2022-10-31T00:32:19;12.70;99.90
52159;DHT22;38145;53.182;6.284;2022-10-31T00:34:45;12.80;99.90
52159;DHT22;38145;53.182;6.284;2022-10-31T00:37:11;12.80;99.90
52159;DHT22;38145;53.182;6.284;2022-10-31T00:39:37;12.70;99.90
52159;DHT22;38145;53.182;6.284;2022-10-31T00:42:03;12.90;99.90
52159;DHT22;38145;53.182;6.284;2022-10-31T00:44:29;12.80;99.90
52159;DHT22;38145;53.182;6.284;2022-10-31T00:46:55;12.60;99.90
52159;DHT22;38145;53.182;6.284;2022-10-31T00:49:22;12.80;99.90
52159;DHT22;38145;53.182;6.284;2022-10-31T00:51:48;12.80;99.90
52159;DHT22;38145;53.182;6.284;2022-10-31T00:54:14;12.60;99.90
52159;DHT22;38145;53.182;6.284;2022-10-31T00:56:40;12.50;99.90
52159;DHT22;38145;53.182;6.284;2022-10-31T00:59:06;12.70;99.90
52159;DHT22;38145;53.182;6.284;2022-10-31T01:01:32;12.50;99.90
52159;DHT22;38145;53.182;6.284;2022-10-31T01:03:58;12.50;99.90
52159;DHT22;38145;53.182;6.284;2022-10-31T01:06:24;12.60;99.90
52159;DHT22;38145;53.182;6.284;2022-10-31T01:08:50;12.70;99.90
52159;DHT22;38145;53.182;6.284;2022-10-31T01:11:17;12.50;99.90
52159;DHT22;38145;53.182;6.284;2022-10-31T01:13:44;12.60;99.90
52159;DHT22;38145;53.182;6.284;2022-10-31T01:16:10;12.30;99.90
52159;DHT22;38145;53.182;6.284;2022-10-31T01:18:37;12.50;99.90
52159;DHT22;38145;53.182;6.284;2022-10-31T01:21:06;12.20;99.90
52159;DHT22;38145;53.182;6.284;2022-10-31T01:23:33;12.30;99.90
52159;DHT22;38145;53.182;6.284;2022-10-31T01:26:00;12.50;99.90
52159;DHT22;38145;53.182;6.284;2022-10-31T01:28:26;12.30;99.90
52159;DHT22;38145;53.182;6.284;2022-10-31T01:30:52;12.50;99.90
52159;DHT22;38145;53.182;6.284;2022-10-31T01:33:18;12.50;99.90
52159;DHT22;38145;53.182;6.284;2022-10-31T01:35:44;12.40;99.90
52159;DHT22;38145;53.182;6.284;2022-10-31T01:38:10;12.20;99.90
52159;DHT22;38145;53.182;6.284;2022-10-31T01:40:36;12.20;99.90
52159;DHT22;38145;53.182;6.284;2022-10-31T01:43:02;12.30;99.90
52159;DHT22;38145;53.182;6.284;2022-10-31T01:45:29;12.20;99.90
52159;DHT22;38145;53.182;6.284;2022-10-31T01:47:55;12.00;99.90
52159;DHT22;38145;53.182;6.284;2022-10-31T01:50:26;12.20;99.90
52159;DHT22;38145;53.182;6.284;2022-10-31T01:52:53;12.30;99.90
52159;DHT22;38145;53.182;6.284;2022-10-31T01:55:23;12.10;99.90
52159;DHT22;38145;53.182;6.284;2022-10-31T01:57:51;12.00;99.90
52159;DHT22;38145;53.182;6.284;2022-10-31T02:00:17;12.00;99.90
52159;DHT22;38145;53.182;6.284;2022-10-31T02:02:44;12.00;99.90
52159;DHT22;38145;53.182;6.284;2022-10-31T02:05:14;12.20;99.90
52159;DHT22;38145;53.182;6.284;2022-10-31T02:07:44;12.20;99.90
52159;DHT22;38145;53.182;6.284;2022-10-31T02:10:11;12.00;99.90
52159;DHT22;38145;53.182;6.284;2022-10-31T02:12:38;11.90;99.90
52159;DHT22;38145;53.182;6.284;2022-10-31T02:15:04;11.90;99.90
52159;DHT22;38145;53.182;6.284;2022-10-31T02:17:31;12.00;99.90
52159;DHT22;38145;53.182;6.284;2022-10-31T02:22:33;11.90;99.90
52159;DHT22;38145;53.182;6.284;2022-10-31T02:25:04;12.00;99.90
52159;DHT22;38145;53.182;6.284;2022-10-31T02:27:40;11.80;99.90
52159;DHT22;38145;53.182;6.284;2022-10-31T02:30:11;11.90;99.90
52159;DHT22;38145;53.182;6.284;2022-10-31T02:32:41;11.70;99.90
52159;DHT22;38145;53.182;6.284;2022-10-31T02:37:37;11.90;99.90
52159;DHT22;38145;53.182;6.284;2022-10-31T02:40:09;11.80;99.90
52159;DHT22;38145;53.182;6.284;2022-10-31T02:42:39;11.90;99.90
52159;DHT22;38145;53.182;6.284;2022-10-31T02:45:08;11.90;99.90
52159;DHT22;38145;53.182;6.284;2022-10-31T02:47:37;11.70;99.90
52159;DHT22;38145;53.182;6.284;2022-10-31T02:50:13;11.60;99.90
52159;DHT22;38145;53.182;6.284;2022-10-31T02:52:41;11.80;99.90
52159;DHT22;38145;53.182;6.284;2022-10-31T02:55:12;11.60;99.90
52159;DHT22;38145;53.182;6.284;2022-10-31T02:58:02;11.60;99.90
52159;DHT22;38145;53.182;6.284;2022-10-31T03:00:31;11.40;99.90
52159;DHT22;38145;53.182;6.284;2022-10-31T03:03:04;11.30;99.90
52159;DHT22;38145;53.182;6.284;2022-10-31T03:08:04;11.50;99.90
52159;DHT22;38145;53.182;6.284;2022-10-31T03:10:43;11.30;99.90
52159;DHT22;38145;53.182;6.284;2022-10-31T03:13:14;11.50;99.90
52159;DHT22;38145;53.182;6.284;2022-10-31T03:15:43;11.30;99.90
52159;DHT22;38145;53.182;6.284;2022-10-31T03:18:16;11.40;99.90
52159;DHT22;38145;53.182;6.284;2022-10-31T03:20:46;11.40;99.90
52159;DHT22;38145;53.182;6.284;2022-10-31T03:23:14;11.40;99.90
52159;DHT22;38145;53.182;6.284;2022-10-31T03:25:40;11.20;99.90
52159;DHT22;38145;53.182;6.284;2022-10-31T03:28:07;11.20;99.90
52159;DHT22;38145;53.182;6.284;2022-10-31T03:30:35;11.30;99.90
52159;DHT22;38145;53.182;6.284;2022-10-31T03:33:03;11.20;99.90
52159;DHT22;38145;53.182;6.284;2022-10-31T03:35:30;11.40;99.90
52159;DHT22;38145;53.182;6.284;2022-10-31T03:37:58;11.20;99.90
52159;DHT22;38145;53.182;6.284;2022-10-31T03:40:26;11.10;99.90
52159;DHT22;38145;53.182;6.284;2022-10-31T03:42:58;11.30;99.90
52159;DHT22;38145;53.182;6.284;2022-10-31T03:45:26;11.30;99.90
52159;DHT22;38145;53.182;6.284;2022-10-31T03:47:53;11.10;99.90
52159;DHT22;38145;53.182;6.284;2022-10-31T03:50:20;11.00;99.90
52159;DHT22;38145;53.182;6.284;2022-10-31T03:52:49;11.20;99.90
52159;DHT22;38145;53.182;6.284;2022-10-31T03:55:19;11.20;99.90
52159;DHT22;38145;53.182;6.284;2022-10-31T03:57:55;11.20;99.90
52159;DHT22;38145;53.182;6.284;2022-10-31T04:00:23;11.00;99.90
52159;DHT22;38145;53.182;6.284;2022-10-31T04:03:00;11.10;99.90
52159;DHT22;38145;53.182;6.284;2022-10-31T04:05:29;11.10;99.90
52159;DHT22;38145;53.182;6.284;2022-10-31T04:07:57;10.90;99.90
52159;DHT22;38145;53.182;6.284;2022-10-31T04:10:24;11.10;99.90
52159;DHT22;38145;53.182;6.284;2022-10-31T04:12:54;10.90;99.90
52159;DHT22;38145;53.182;6.284;2022-10-31T04:15:23;11.10;99.90
52159;DHT22;38145;53.182;6.284;2022-10-31T04:17:51;11.10;99.90
52159;DHT22;38145;53.182;6.284;2022-10-31T04:20:18;11.00;99.90
52159;DHT22;38145;53.182;6.284;2022-10-31T04:22:44;10.80;99.90
52159;DHT22;38145;53.182;6.284;2022-10-31T04:25:10;10.80;99.90
52159;DHT22;38145;53.182;6.284;2022-10-31T04:27:40;10.80;99.90
52159;DHT22;38145;53.182;6.284;2022-10-31T04:30:06;11.00;99.90
52159;DHT22;38145;53.182;6.284;2022-10-31T04:32:32;11.00;99.90
52159;DHT22;38145;53.182;6.284;2022-10-31T04:34:58;10.60;99.90
52159;DHT22;38145;53.182;6.284;2022-10-31T04:37:24;10.90;99.90
52159;DHT22;38145;53.182;6.284;2022-10-31T04:39:50;10.60;99.90
52159;DHT22;38145;53.182;6.284;2022-10-31T04:42:16;10.80;99.90
52159;DHT22;38145;53.182;6.284;2022-10-31T04:44:42;10.70;99.90
52159;DHT22;38145;53.182;6.284;2022-10-31T04:47:08;10.70;99.90
52159;DHT22;38145;53.182;6.284;2022-10-31T04:49:34;10.60;99.90
52159;DHT22;38145;53.182;6.284;2022-10-31T04:52:01;10.60;99.90
52159;DHT22;38145;53.182;6.284;2022-10-31T04:54:26;10.70;99.90
52159;DHT22;38145;53.182;6.284;2022-10-31T04:56:52;10.90;99.90
52159;DHT22;38145;53.182;6.284;2022-10-31T04:59:18;10.70;99.90
52159;DHT22;38145;53.182;6.284;2022-10-31T05:01:44;10.80;99.90
52159;DHT22;38145;53.182;6.284;2022-10-31T05:04:11;10.60;99.90
52159;DHT22;38145;53.182;6.284;2022-10-31T05:06:37;10.70;99.90
52159;DHT22;38145;53.182;6.284;2022-10-31T05:09:04;10.50;99.90
52159;DHT22;38145;53.182;6.284;2022-10-31T05:11:29;10.70;99.90
52159;DHT22;38145;53.182;6.284;2022-10-31T05:13:55;10.70;99.90
52159;DHT22;38145;53.182;6.284;2022-10-31T05:16:21;10.50;99.90
52159;DHT22;38145;53.182;6.284;2022-10-31T05:18:47;10.70;99.90
52159;DHT22;38145;53.182;6.284;2022-10-31T05:21:13;10.60;99.90
52159;DHT22;38145;53.182;6.284;2022-10-31T05:23:39;10.40;99.90
52159;DHT22;38145;53.182;6.284;2022-10-31T05:26:05;10.60;99.90
52159;DHT22;38145;53.182;6.284;2022-10-31T05:28:31;10.50;99.90
52159;DHT22;38145;53.182;6.284;2022-10-31T05:30:57;10.60;99.90
52159;DHT22;38145;53.182;6.284;2022-10-31T05:33:23;10.60;99.90
52159;DHT22;38145;53.182;6.284;2022-10-31T05:35:49;10.40;99.90
52159;DHT22;38145;53.182;6.284;2022-10-31T05:38:15;10.40;99.90
52159;DHT22;38145;53.182;6.284;2022-10-31T05:40:41;10.50;99.90
52159;DHT22;38145;53.182;6.284;2022-10-31T05:43:07;10.40;99.90
52159;DHT22;38145;53.182;6.284;2022-10-31T05:45:33;10.50;99.90
52159;DHT22;38145;53.182;6.284;2022-10-31T05:48:00;10.40;99.90
52159;DHT22;38145;53.182;6.284;2022-10-31T05:50:28;10.50;99.90
52159;DHT22;38145;53.182;6.284;2022-10-31T05:52:55;10.30;99.90
52159;DHT22;38145;53.182;6.284;2022-10-31T05:55:21;10.30;99.90
52159;DHT22;38145;53.182;6.284;2022-10-31T05:57:47;10.30;99.90
52159;DHT22;38145;53.182;6.284;2022-10-31T06:00:13;10.40;99.90
52159;DHT22;38145;53.182;6.284;2022-10-31T06:02:39;10.20;99.90
52159;DHT22;38145;53.182;6.284;2022-10-31T06:05:05;10.30;99.90
52159;DHT22;38145;53.182;6.284;2022-10-31T06:07:32;10.40;99.90
52159;DHT22;38145;53.182;6.284;2022-10-31T06:09:59;10.20;99.90
52159;DHT22;38145;53.182;6.284;2022-10-31T06:12:26;10.30;99.90
52159;DHT22;38145;53.182;6.284;2022-10-31T06:14:52;10.20;99.90
52159;DHT22;38145;53.182;6.284;2022-10-31T06:17:18;10.20;99.90
52159;DHT22;38145;53.182;6.284;2022-10-31T06:19:44;10.30;99.90
52159;DHT22;38145;53.182;6.284;2022-10-31T06:22:10;10.30;99.90
52159;DHT22;38145;53.182;6.284;2022-10-31T06:24:37;10.30;99.90
52159;DHT22;38145;53.182;6.284;2022-10-31T06:27:04;10.30;99.90
52159;DHT22;38145;53.182;6.284;2022-10-31T06:29:30;10.30;99.90
52159;DHT22;38145;53.182;6.284;2022-10-31T06:31:56;10.20;99.90
52159;DHT22;38145;53.182;6.284;2022-10-31T06:34:22;10.00;99.90
52159;DHT22;38145;53.182;6.284;2022-10-31T06:36:49;10.30;99.90
52159;DHT22;38145;53.182;6.284;2022-10-31T06:39:15;10.00;99.90
52159;DHT22;38145;53.182;6.284;2022-10-31T06:41:42;10.00;99.90
52159;DHT22;38145;53.182;6.284;2022-10-31T06:44:08;10.20;99.90
52159;DHT22;38145;53.182;6.284;2022-10-31T06:46:34;10.10;99.90
52159;DHT22;38145;53.182;6.284;2022-10-31T06:49:00;10.00;99.90
52159;DHT22;38145;53.182;6.284;2022-10-31T06:51:26;10.00;99.90
52159;DHT22;38145;53.182;6.284;2022-10-31T06:53:52;10.00;99.90
52159;DHT22;38145;53.182;6.284;2022-10-31T06:56:18;10.00;99.90
52159;DHT22;38145;53.182;6.284;2022-10-31T06:58:44;10.00;99.90
52159;DHT22;38145;53.182;6.284;2022-10-31T07:01:12;10.00;99.90
52159;DHT22;38145;53.182;6.284;2022-10-31T07:03:37;10.10;99.90
52159;DHT22;38145;53.182;6.284;2022-10-31T07:06:04;10.30;99.90
52159;DHT22;38145;53.182;6.284;2022-10-31T07:08:30;10.10;99.90
52159;DHT22;38145;53.182;6.284;2022-10-31T07:10:56;10.30;99.90
52159;DHT22;38145;53.182;6.284;2022-10-31T07:13:23;10.30;99.90
52159;DHT22;38145;53.182;6.284;2022-10-31T07:15:52;10.10;99.90
52159;DHT22;38145;53.182;6.284;2022-10-31T07:18:19;10.00;99.90
52159;DHT22;38145;53.182;6.284;2022-10-31T07:20:45;10.00;99.90
52159;DHT22;38145;53.182;6.284;2022-10-31T07:23:11;10.20;99.90
52159;DHT22;38145;53.182;6.284;2022-10-31T07:25:37;10.10;99.90
52159;DHT22;38145;53.182;6.284;2022-10-31T07:28:04;10.10;99.90
52159;DHT22;38145;53.182;6.284;2022-10-31T07:30:30;10.20;99.90
52159;DHT22;38145;53.182;6.284;2022-10-31T07:32:56;10.20;99.90
52159;DHT22;38145;53.182;6.284;2022-10-31T07:35:24;10.30;99.90
52159;DHT22;38145;53.182;6.284;2022-10-31T07:37:50;10.60;99.90
52159;DHT22;38145;53.182;6.284;2022-10-31T07:40:16;10.60;99.90
52159;DHT22;38145;53.182;6.284;2022-10-31T07:42:43;10.60;99.90
52159;DHT22;38145;53.182;6.284;2022-10-31T07:45:10;10.60;99.90
52159;DHT22;38145;53.182;6.284;2022-10-31T07:47:43;10.60;99.90
52159;DHT22;38145;53.182;6.284;2022-10-31T07:50:10;10.70;99.90
52159;DHT22;38145;53.182;6.284;2022-10-31T07:52:36;10.90;99.90
52159;DHT22;38145;53.182;6.284;2022-10-31T07:55:03;10.80;99.90
52159;DHT22;38145;53.182;6.284;2022-10-31T07:57:29;11.00;99.90
52159;DHT22;38145;53.182;6.284;2022-10-31T07:59:55;10.90;99.90
52159;DHT22;38145;53.182;6.284;2022-10-31T08:02:21;11.20;99.90
52159;DHT22;38145;53.182;6.284;2022-10-31T08:04:47;11.10;99.90
52159;DHT22;38145;53.182;6.284;2022-10-31T08:07:14;11.20;99.90
52159;DHT22;38145;53.182;6.284;2022-10-31T08:09:40;11.50;99.90
52159;DHT22;38145;53.182;6.284;2022-10-31T08:12:06;11.40;99.90
52159;DHT22;38145;53.182;6.284;2022-10-31T08:14:32;11.70;99.90
52159;DHT22;38145;53.182;6.284;2022-10-31T08:16:58;11.50;99.90
52159;DHT22;38145;53.182;6.284;2022-10-31T08:19:24;11.50;99.90
52159;DHT22;38145;53.182;6.284;2022-10-31T08:21:50;11.50;99.90
52159;DHT22;38145;53.182;6.284;2022-10-31T08:24:17;11.60;99.90
52159;DHT22;38145;53.182;6.284;2022-10-31T08:26:43;11.60;99.90
52159;DHT22;38145;53.182;6.284;2022-10-31T08:29:09;11.80;99.90
52159;DHT22;38145;53.182;6.284;2022-10-31T08:31:35;12.10;99.90
52159;DHT22;38145;53.182;6.284;2022-10-31T08:34:01;12.40;99.90
52159;DHT22;38145;53.182;6.284;2022-10-31T08:36:28;12.80;99.90
52159;DHT22;38145;53.182;6.284;2022-10-31T08:38:54;12.90;99.90
52159;DHT22;38145;53.182;6.284;2022-10-31T08:41:20;13.10;99.90
52159;DHT22;38145;53.182;6.284;2022-10-31T08:43:46;13.10;99.90
52159;DHT22;38145;53.182;6.284;2022-10-31T08:46:12;13.50;99.90
52159;DHT22;38145;53.182;6.284;2022-10-31T08:48:38;13.70;99.90
52159;DHT22;38145;53.182;6.284;2022-10-31T08:51:04;13.70;99.90
52159;DHT22;38145;53.182;6.284;2022-10-31T08:53:30;13.70;99.90
52159;DHT22;38145;53.182;6.284;2022-10-31T08:55:57;13.70;99.90
52159;DHT22;38145;53.182;6.284;2022-10-31T08:58:23;13.70;99.90
52159;DHT22;38145;53.182;6.284;2022-10-31T09:00:51;13.90;99.90
52159;DHT22;38145;53.182;6.284;2022-10-31T09:03:20;14.00;99.90
52159;DHT22;38145;53.182;6.284;2022-10-31T09:05:46;14.20;99.90
52159;DHT22;38145;53.182;6.284;2022-10-31T09:08:13;14.30;99.90
52159;DHT22;38145;53.182;6.284;2022-10-31T09:10:39;14.50;99.90
52159;DHT22;38145;53.182;6.284;2022-10-31T09:13:07;14.80;99.90
52159;DHT22;38145;53.182;6.284;2022-10-31T09:15:34;15.00;99.90
52159;DHT22;38145;53.182;6.284;2022-10-31T09:18:01;14.90;99.90
52159;DHT22;38145;53.182;6.284;2022-10-31T09:20:27;15.10;99.90
52159;DHT22;38145;53.182;6.284;2022-10-31T09:22:55;15.30;99.90
52159;DHT22;38145;53.182;6.284;2022-10-31T09:25:22;15.30;99.90
52159;DHT22;38145;53.182;6.284;2022-10-31T09:27:48;15.40;99.90
52159;DHT22;38145;53.182;6.284;2022-10-31T09:30:14;15.60;99.90
52159;DHT22;38145;53.182;6.284;2022-10-31T09:32:40;15.70;99.90
52159;DHT22;38145;53.182;6.284;2022-10-31T09:35:06;15.70;99.90
52159;DHT22;38145;53.182;6.284;2022-10-31T09:37:32;15.70;99.90
52159;DHT22;38145;53.182;6.284;2022-10-31T09:39:59;15.70;99.90
52159;DHT22;38145;53.182;6.284;2022-10-31T09:42:35;15.70;99.90
52159;DHT22;38145;53.182;6.284;2022-10-31T09:45:07;15.70;99.90
52159;DHT22;38145;53.182;6.284;2022-10-31T09:50:11;16.20;99.90
52159;DHT22;38145;53.182;6.284;2022-10-31T09:52:39;16.20;99.90
52159;DHT22;38145;53.182;6.284;2022-10-31T09:55:13;16.40;99.90
52159;DHT22;38145;53.182;6.284;2022-10-31T09:57:40;16.50;99.90
52159;DHT22;38145;53.182;6.284;2022-10-31T10:00:10;16.40;99.90
52159;DHT22;38145;53.182;6.284;2022-10-31T10:02:43;16.20;99.90
52159;DHT22;38145;53.182;6.284;2022-10-31T10:05:12;16.10;99.90
52159;DHT22;38145;53.182;6.284;2022-10-31T10:10:12;16.30;99.90
52159;DHT22;38145;53.182;6.284;2022-10-31T10:12:45;16.40;99.90
52159;DHT22;38145;53.182;6.284;2022-10-31T10:17:49;16.30;99.90
52159;DHT22;38145;53.182;6.284;2022-10-31T10:20:31;16.50;99.90
52159;DHT22;38145;53.182;6.284;2022-10-31T10:25:37;16.80;99.90
52159;DHT22;38145;53.182;6.284;2022-10-31T10:28:08;16.70;99.90
52159;DHT22;38145;53.182;6.284;2022-10-31T10:30:43;16.70;99.90
52159;DHT22;38145;53.182;6.284;2022-10-31T10:33:13;16.70;99.90
52159;DHT22;38145;53.182;6.284;2022-10-31T10:35:42;16.80;99.90
52159;DHT22;38145;53.182;6.284;2022-10-31T10:38:13;16.90;99.90
52159;DHT22;38145;53.182;6.284;2022-10-31T10:40:41;17.00;99.90
52159;DHT22;38145;53.182;6.284;2022-10-31T10:51:41;17.00;99.90
52159;DHT22;38145;53.182;6.284;2022-10-31T10:56:49;16.50;99.90
52159;DHT22;38145;53.182;6.284;2022-10-31T10:59:17;16.30;99.90
52159;DHT22;38145;53.182;6.284;2022-10-31T11:01:44;16.30;99.90
52159;DHT22;38145;53.182;6.284;2022-10-31T11:04:23;16.40;99.90
52159;DHT22;38145;53.182;6.284;2022-10-31T11:06:58;16.40;99.90
52159;DHT22;38145;53.182;6.284;2022-10-31T11:09:24;16.40;99.90
52159;DHT22;38145;53.182;6.284;2022-10-31T11:11:50;16.30;99.90
52159;DHT22;38145;53.182;6.284;2022-10-31T11:14:17;16.40;99.90
52159;DHT22;38145;53.182;6.284;2022-10-31T11:16:44;16.20;99.90
52159;DHT22;38145;53.182;6.284;2022-10-31T11:21:38;16.20;99.90
52159;DHT22;38145;53.182;6.284;2022-10-31T11:26:34;16.00;99.90
52159;DHT22;38145;53.182;6.284;2022-10-31T11:29:03;15.90;99.90
52159;DHT22;38145;53.182;6.284;2022-10-31T11:31:31;15.80;99.90
52159;DHT22;38145;53.182;6.284;2022-10-31T11:33:59;15.80;99.90
52159;DHT22;38145;53.182;6.284;2022-10-31T11:36:29;15.70;99.90
52159;DHT22;38145;53.182;6.284;2022-10-31T11:38:56;15.60;99.90
52159;DHT22;38145;53.182;6.284;2022-10-31T11:41:25;15.60;99.90
52159;DHT22;38145;53.182;6.284;2022-10-31T11:43:53;15.60;99.90
52159;DHT22;38145;53.182;6.284;2022-10-31T11:46:22;15.60;99.90
52159;DHT22;38145;53.182;6.284;2022-10-31T11:48:50;15.60;99.90
52159;DHT22;38145;53.182;6.284;2022-10-31T11:51:21;15.70;99.90
52159;DHT22;38145;53.182;6.284;2022-10-31T11:53:50;15.70;99.90
52159;DHT22;38145;53.182;6.284;2022-10-31T11:56:16;15.70;99.90
52159;DHT22;38145;53.182;6.284;2022-10-31T11:58:42;15.80;99.90
52159;DHT22;38145;53.182;6.284;2022-10-31T12:01:29;15.80;99.90
52159;DHT22;38145;53.182;6.284;2022-10-31T12:06:33;15.90;99.90
52159;DHT22;38145;53.182;6.284;2022-10-31T12:09:00;15.90;99.90
52159;DHT22;38145;53.182;6.284;2022-10-31T12:11:31;15.90;99.90
52159;DHT22;38145;53.182;6.284;2022-10-31T12:14:08;15.90;99.90
52159;DHT22;38145;53.182;6.284;2022-10-31T12:16:40;15.90;99.90
52159;DHT22;38145;53.182;6.284;2022-10-31T12:19:14;16.00;99.90
52159;DHT22;38145;53.182;6.284;2022-10-31T12:21:52;16.00;99.90
52159;DHT22;38145;53.182;6.284;2022-10-31T12:24:27;16.00;99.90
52159;DHT22;38145;53.182;6.284;2022-10-31T12:29:31;16.00;99.90
52159;DHT22;38145;53.182;6.284;2022-10-31T12:32:21;16.00;99.90
52159;DHT22;38145;53.182;6.284;2022-10-31T12:35:08;16.00;99.90
52159;DHT22;38145;53.182;6.284;2022-10-31T12:37:44;16.00;99.90
52159;DHT22;38145;53.182;6.284;2022-10-31T12:40:27;16.00;99.90
52159;DHT22;38145;53.182;6.284;2022-10-31T12:43:00;15.90;99.90
52159;DHT22;38145;53.182;6.284;2022-10-31T12:45:35;15.90;99.90
52159;DHT22;38145;53.182;6.284;2022-10-31T12:48:10;15.80;99.90
52159;DHT22;38145;53.182;6.284;2022-10-31T12:50:52;15.90;99.90
52159;DHT22;38145;53.182;6.284;2022-10-31T12:53:26;15.90;99.90
52159;DHT22;38145;53.182;6.284;2022-10-31T13:00:48;15.90;99.90
52159;DHT22;38145;53.182;6.284;2022-10-31T13:03:24;15.90;99.90
52159;DHT22;38145;53.182;6.284;2022-10-31T13:05:52;16.00;99.90
52159;DHT22;38145;53.182;6.284;2022-10-31T13:08:22;15.90;99.90
52159;DHT22;38145;53.182;6.284;2022-10-31T13:10:52;15.90;99.90
52159;DHT22;38145;53.182;6.284;2022-10-31T13:13:41;15.90;99.90
52159;DHT22;38145;53.182;6.284;2022-10-31T13:16:10;15.80;99.90
52159;DHT22;38145;53.182;6.284;2022-10-31T13:18:46;15.90;99.90
52159;DHT22;38145;53.182;6.284;2022-10-31T13:21:18;15.90;99.90
52159;DHT22;38145;53.182;6.284;2022-10-31T13:23:44;15.90;99.90
52159;DHT22;38145;53.182;6.284;2022-10-31T13:26:13;15.80;99.90
52159;DHT22;38145;53.182;6.284;2022-10-31T13:29:03;15.90;99.90
52159;DHT22;38145;53.182;6.284;2022-10-31T13:31:31;15.90;99.90
52159;DHT22;38145;53.182;6.284;2022-10-31T13:33:57;16.00;99.90
52159;DHT22;38145;53.182;6.284;2022-10-31T13:36:31;16.10;99.90
52159;DHT22;38145;53.182;6.284;2022-10-31T13:39:03;16.00;99.90
52159;DHT22;38145;53.182;6.284;2022-10-31T13:41:45;16.10;99.90
52159;DHT22;38145;53.182;6.284;2022-10-31T13:44:14;16.20;99.90
52159;DHT22;38145;53.182;6.284;2022-10-31T13:46:42;16.20;99.90
52159;DHT22;38145;53.182;6.284;2022-10-31T13:49:25;16.20;99.90
52159;DHT22;38145;53.182;6.284;2022-10-31T13:51:51;16.20;99.90
52159;DHT22;38145;53.182;6.284;2022-10-31T13:54:19;16.30;99.90
52159;DHT22;38145;53.182;6.284;2022-10-31T13:56:49;16.30;99.90
52159;DHT22;38145;53.182;6.284;2022-10-31T13:59:17;16.30;99.90
52159;DHT22;38145;53.182;6.284;2022-10-31T14:01:51;16.20;99.90
52159;DHT22;38145;53.182;6.284;2022-10-31T14:04:20;16.20;99.90
52159;DHT22;38145;53.182;6.284;2022-10-31T14:06:53;16.20;99.90
52159;DHT22;38145;53.182;6.284;2022-10-31T14:09:28;16.10;99.90
52159;DHT22;38145;53.182;6.284;2022-10-31T14:11:55;16.00;99.90
52159;DHT22;38145;53.182;6.284;2022-10-31T14:14:22;16.00;99.90
52159;DHT22;38145;53.182;6.284;2022-10-31T14:16:53;16.00;99.90
52159;DHT22;38145;53.182;6.284;2022-10-31T14:19:23;15.90;99.90
52159;DHT22;38145;53.182;6.284;2022-10-31T14:21:50;15.90;99.90
52159;DHT22;38145;53.182;6.284;2022-10-31T14:26:52;15.80;99.90
52159;DHT22;38145;53.182;6.284;2022-10-31T14:29:21;15.80;99.90
52159;DHT22;38145;53.182;6.284;2022-10-31T14:31:52;15.70;99.90
52159;DHT22;38145;53.182;6.284;2022-10-31T14:34:29;15.60;99.90
52159;DHT22;38145;53.182;6.284;2022-10-31T14:44:45;15.60;99.90
52159;DHT22;38145;53.182;6.284;2022-10-31T14:47:28;15.50;99.90
52159;DHT22;38145;53.182;6.284;2022-10-31T14:52:27;15.50;99.90
52159;DHT22;38145;53.182;6.284;2022-10-31T14:54:54;15.40;99.90
52159;DHT22;38145;53.182;6.284;2022-10-31T14:57:23;15.40;99.90
52159;DHT22;38145;53.182;6.284;2022-10-31T14:59:52;15.40;99.90
52159;DHT22;38145;53.182;6.284;2022-10-31T15:02:23;15.30;99.90
52159;DHT22;38145;53.182;6.284;2022-10-31T15:04:50;15.30;99.90
52159;DHT22;38145;53.182;6.284;2022-10-31T15:07:18;15.10;99.90
52159;DHT22;38145;53.182;6.284;2022-10-31T15:09:54;15.20;99.90
52159;DHT22;38145;53.182;6.284;2022-10-31T15:12:22;15.10;99.90
52159;DHT22;38145;53.182;6.284;2022-10-31T15:14:48;15.00;99.90
52159;DHT22;38145;53.182;6.284;2022-10-31T15:17:14;15.00;99.90
52159;DHT22;38145;53.182;6.284;2022-10-31T15:19:42;15.00;99.90
52159;DHT22;38145;53.182;6.284;2022-10-31T15:22:10;15.10;99.90
52159;DHT22;38145;53.182;6.284;2022-10-31T15:24:40;15.00;99.90
52159;DHT22;38145;53.182;6.284;2022-10-31T15:27:12;15.00;99.90
52159;DHT22;38145;53.182;6.284;2022-10-31T15:29:55;15.00;99.90
52159;DHT22;38145;53.182;6.284;2022-10-31T15:32:23;14.90;99.90
52159;DHT22;38145;53.182;6.284;2022-10-31T15:34:50;14.90;99.90
52159;DHT22;38145;53.182;6.284;2022-10-31T15:37:18;14.80;99.90
52159;DHT22;38145;53.182;6.284;2022-10-31T15:39:45;14.90;99.90
52159;DHT22;38145;53.182;6.284;2022-10-31T15:42:22;14.80;99.90
52159;DHT22;38145;53.182;6.284;2022-10-31T15:44:49;14.70;99.90
52159;DHT22;38145;53.182;6.284;2022-10-31T15:47:17;14.70;99.90
52159;DHT22;38145;53.182;6.284;2022-10-31T15:49:48;14.70;99.90
52159;DHT22;38145;53.182;6.284;2022-10-31T15:52:25;14.80;99.90
52159;DHT22;38145;53.182;6.284;2022-10-31T15:54:53;14.70;99.90
52159;DHT22;38145;53.182;6.284;2022-10-31T15:57:21;14.80;99.90
52159;DHT22;38145;53.182;6.284;2022-10-31T15:59:48;14.60;99.90
52159;DHT22;38145;53.182;6.284;2022-10-31T16:02:17;14.70;99.90
52159;DHT22;38145;53.182;6.284;2022-10-31T16:04:49;14.50;99.90
52159;DHT22;38145;53.182;6.284;2022-10-31T16:07:16;14.60;99.90
52159;DHT22;38145;53.182;6.284;2022-10-31T16:09:51;14.50;99.90
52159;DHT22;38145;53.182;6.284;2022-10-31T16:12:17;14.50;99.90
52159;DHT22;38145;53.182;6.284;2022-10-31T16:14:43;14.60;99.90
52159;DHT22;38145;53.182;6.284;2022-10-31T16:17:11;14.50;99.90
52159;DHT22;38145;53.182;6.284;2022-10-31T16:19:42;14.60;99.90
52159;DHT22;38145;53.182;6.284;2022-10-31T16:22:11;14.50;99.90
52159;DHT22;38145;53.182;6.284;2022-10-31T16:24:44;14.40;99.90
52159;DHT22;38145;53.182;6.284;2022-10-31T16:27:17;14.50;99.90
52159;DHT22;38145;53.182;6.284;2022-10-31T16:29:45;14.50;99.90
52159;DHT22;38145;53.182;6.284;2022-10-31T16:32:24;14.50;99.90
52159;DHT22;38145;53.182;6.284;2022-10-31T16:37:37;14.40;99.90